Time;durP1;ratioP1;P1;durP2;ratioP2;P2;SDS_P1;SDS_P2;PMS_P1;PMS_P2;Temp;Humidity;BMP_temperature;BMP_pressure;BME280_temperature;BME280_humidity;BME280_pressure;Samples;Min_cycle;Max_cycle;Signal;HPM_P1;HPM_P2
2022/08/25 00:02:02;;;;;;;0.63;0.20;;;23.40;81.50;;;;;;4916453;29;20502;-73
2022/08/25 00:04:29;;;;;;;0.45;0.15;;;23.00;81.30;;;;;;4917420;29;20051;-74
2022/08/25 00:06:57;;;;;;;0.68;0.20;;;22.80;83.70;;;;;;4915816;29;20055;-73
2022/08/25 00:09:27;;;;;;;0.20;0.10;;;22.60;82.40;;;;;;4915940;29;20056;-74
2022/08/25 00:11:55;;;;;;;0.80;0.10;;;22.80;83.00;;;;;;4911233;29;20036;-73
2022/08/25 00:14:41;;;;;;;0.20;0.05;;;22.80;82.30;;;;;;4916378;29;20052;-72
2022/08/25 00:17:09;;;;;;;0.55;0.00;;;22.80;82.20;;;;;;4913922;29;20024;-73
2022/08/25 00:19:38;;;;;;;0.98;0.10;;;22.90;80.60;;;;;;4916807;29;20040;-73
2022/08/25 00:22:06;;;;;;;0.38;0.00;;;22.70;81.50;;;;;;4910994;29;20033;-73
2022/08/25 00:24:34;;;;;;;0.22;0.00;;;23.00;83.00;;;;;;4916182;29;20032;-74
2022/08/25 00:27:02;;;;;;;0.00;0.00;;;23.90;81.40;;;;;;4914518;29;20062;-73
2022/08/25 00:29:31;;;;;;;0.00;0.00;;;24.70;79.20;;;;;;4915773;29;20044;-73
2022/08/25 00:31:59;;;;;;;0.40;0.15;;;25.40;78.90;;;;;;4913922;29;20028;-73
2022/08/25 00:34:32;;;;;;;2.33;0.00;;;25.50;77.90;;;;;;4915729;29;20039;-72
2022/08/25 00:37:01;;;;;;;0.00;0.00;;;25.20;77.80;;;;;;4914183;29;20429;-73
2022/08/25 00:39:29;;;;;;;0.00;0.00;;;24.30;78.40;;;;;;4915663;29;20036;-73
2022/08/25 00:41:57;;;;;;;1.45;0.00;;;23.70;79.90;;;;;;4913757;29;20036;-73
2022/08/25 00:44:26;;;;;;;0.00;0.00;;;23.30;81.10;;;;;;4915479;29;20079;-73
2022/08/25 00:46:59;;;;;;;0.17;0.00;;;23.30;80.90;;;;;;4913505;29;20036;-72
2022/08/25 00:49:29;;;;;;;0.10;0.08;;;24.00;81.00;;;;;;4915657;29;20041;-73
2022/08/25 00:52:05;;;;;;;0.00;0.00;;;24.40;80.70;;;;;;4913719;29;20032;-72
2022/08/25 00:54:45;;;;;;;0.00;0.00;;;24.40;78.70;;;;;;4915751;29;20172;-73
2022/08/25 00:57:14;;;;;;;0.00;0.00;;;24.00;78.00;;;;;;4914894;29;20032;-73
2022/08/25 00:59:43;;;;;;;0.00;0.00;;;23.80;79.70;;;;;;4915440;29;20487;-73
2022/08/25 01:02:14;;;;;;;0.00;0.00;;;23.50;80.00;;;;;;4913829;29;20111;-73
2022/08/25 01:04:42;;;;;;;1.27;0.00;;;23.20;80.60;;;;;;4915302;29;20563;-72
2022/08/25 01:07:10;;;;;;;0.00;0.00;;;22.70;80.30;;;;;;4910146;29;20036;-73
2022/08/25 01:09:38;;;;;;;1.55;0.00;;;22.50;81.70;;;;;;4793870;29;3161380;-74
2022/08/25 01:12:06;;;;;;;1.45;0.00;;;22.30;81.30;;;;;;4913894;29;20337;-73
2022/08/25 01:14:35;;;;;;;0.00;0.00;;;21.90;80.20;;;;;;4915923;29;20344;-73
2022/08/25 01:17:03;;;;;;;0.00;0.00;;;21.70;83.10;;;;;;4911131;29;20032;-73
2022/08/25 01:19:34;;;;;;;0.15;0.00;;;21.40;82.20;;;;;;4915889;29;20460;-73
2022/08/25 01:22:01;;;;;;;1.55;0.00;;;21.00;83.40;;;;;;4914138;29;20115;-73
2022/08/25 01:24:52;;;;;;;0.00;0.00;;;20.80;84.20;;;;;;4915754;29;20024;-73
2022/08/25 01:27:19;;;;;;;0.32;0.00;;;20.80;83.50;;;;;;4912450;29;20070;-74
2022/08/25 01:29:48;;;;;;;0.00;0.00;;;20.80;84.60;;;;;;4914266;29;20131;-73
2022/08/25 01:32:15;;;;;;;0.10;0.00;;;20.60;84.60;;;;;;4910080;29;20400;-73
2022/08/25 01:34:46;;;;;;;0.03;0.00;;;20.50;84.50;;;;;;4896944;29;20116;-73
2022/08/25 01:37:15;;;;;;;0.10;0.00;;;20.40;84.10;;;;;;4915256;29;20399;-73
2022/08/25 01:39:43;;;;;;;1.08;0.10;;;20.30;85.70;;;;;;4914772;29;20175;-72
2022/08/25 01:42:22;;;;;;;0.00;0.00;;;20.20;86.60;;;;;;4914636;29;20058;-73
2022/08/25 01:44:50;;;;;;;0.00;0.00;;;20.20;86.80;;;;;;4914878;29;20130;-73
2022/08/25 01:47:18;;;;;;;0.00;0.00;;;20.20;86.40;;;;;;4915115;29;20032;-73
2022/08/25 01:49:46;;;;;;;0.00;0.00;;;20.40;86.10;;;;;;4914853;29;20048;-73
2022/08/25 01:52:50;;;;;;;0.10;0.00;;;20.50;85.60;;;;;;4915084;29;20499;-73
2022/08/25 01:55:18;;;;;;;0.10;0.00;;;20.60;86.30;;;;;;4909147;29;20186;-73
2022/08/25 01:57:45;;;;;;;0.10;0.08;;;20.70;86.60;;;;;;4915297;29;20043;-73
2022/08/25 02:00:15;;;;;;;0.00;0.00;;;21.00;86.60;;;;;;4912938;29;20047;-73
2022/08/25 02:02:42;;;;;;;0.10;0.00;;;21.10;85.50;;;;;;4933874;29;20039;-73
2022/08/25 02:05:15;;;;;;;1.17;0.00;;;21.10;85.40;;;;;;4928714;29;20399;-72
2022/08/25 02:07:43;;;;;;;0.60;0.00;;;21.30;86.40;;;;;;4912335;29;20128;-74
2022/08/25 02:10:12;;;;;;;0.43;0.00;;;21.60;85.00;;;;;;4912510;29;20061;-73
2022/08/25 02:12:40;;;;;;;0.00;0.00;;;21.70;84.90;;;;;;4915142;29;20430;-73
2022/08/25 02:15:08;;;;;;;0.10;0.00;;;21.80;84.10;;;;;;4913478;29;20127;-72
2022/08/25 02:17:36;;;;;;;0.00;0.00;;;21.80;81.80;;;;;;4915571;29;20028;-72
2022/08/25 02:20:08;;;;;;;0.22;0.00;;;21.70;82.80;;;;;;4912650;29;20123;-73
2022/08/25 02:22:36;;;;;;;0.28;0.25;;;21.70;83.80;;;;;;4911286;29;20396;-72
2022/08/25 02:25:05;;;;;;;0.90;0.00;;;21.90;82.90;;;;;;4912913;29;20032;-72
2022/08/25 02:27:32;;;;;;;1.48;0.00;;;22.20;83.90;;;;;;4914579;29;20034;-73
2022/08/25 02:30:00;;;;;;;1.35;0.00;;;22.20;83.50;;;;;;4913055;29;20487;-73
2022/08/25 02:32:27;;;;;;;0.00;0.00;;;22.50;82.20;;;;;;4914909;29;20044;-73
2022/08/25 02:34:55;;;;;;;0.08;0.00;;;23.00;80.70;;;;;;4913231;29;20112;-73
2022/08/25 02:37:22;;;;;;;2.10;0.00;;;23.30;79.70;;;;;;4895683;29;20024;-73
2022/08/25 02:39:49;;;;;;;0.00;0.00;;;23.60;79.70;;;;;;4895037;29;20039;-73
2022/08/25 02:42:17;;;;;;;0.00;0.00;;;23.60;79.70;;;;;;4914207;29;20119;-73
2022/08/25 02:44:44;;;;;;;0.00;0.00;;;23.70;80.00;;;;;;4914436;29;20032;-72
2022/08/25 02:47:11;;;;;;;0.10;0.00;;;23.40;79.40;;;;;;4896128;29;20064;-73
2022/08/25 02:49:39;;;;;;;0.00;0.00;;;23.00;78.10;;;;;;4895502;29;20045;-73
2022/08/25 02:52:07;;;;;;;1.65;0.47;;;22.30;80.20;;;;;;4912212;29;20380;-73
2022/08/25 02:54:35;;;;;;;0.00;0.00;;;22.10;82.20;;;;;;4914362;29;20039;-72
2022/08/25 02:57:02;;;;;;;0.00;0.00;;;22.50;80.80;;;;;;4912798;29;20029;-73
2022/08/25 02:59:30;;;;;;;0.00;0.00;;;22.50;81.20;;;;;;4914610;29;20072;-73
2022/08/25 03:01:57;;;;;;;0.03;0.00;;;23.40;81.50;;;;;;4911843;29;20456;-73
2022/08/25 03:04:25;;;;;;;0.00;0.00;;;24.30;79.20;;;;;;4914306;29;20028;-73
2022/08/25 03:06:52;;;;;;;0.10;0.00;;;24.90;77.10;;;;;;4912515;29;20451;-73
2022/08/25 03:09:19;;;;;;;0.10;0.00;;;24.80;78.70;;;;;;4914495;29;20070;-73
2022/08/25 03:11:47;;;;;;;0.03;0.00;;;24.20;77.90;;;;;;4912119;29;20135;-73
2022/08/25 03:14:15;;;;;;;0.00;0.00;;;23.60;77.80;;;;;;4907084;29;20068;-73
2022/08/25 03:16:43;;;;;;;0.00;0.00;;;23.50;79.00;;;;;;4910281;29;20060;-73
2022/08/25 03:19:10;;;;;;;0.00;0.00;;;23.40;78.80;;;;;;4914235;29;20036;-74
2022/08/25 03:21:38;;;;;;;0.45;0.00;;;23.10;79.60;;;;;;4912312;29;20028;-71
2022/08/25 03:24:06;;;;;;;0.00;0.00;;;23.00;79.70;;;;;;4913981;29;20028;-73
2022/08/25 03:29:22;;;;;;;0.00;0.00;;;22.30;82.50;;;;;;4895549;29;20088;-73
2022/08/25 03:31:50;;;;;;;0.00;0.00;;;21.90;81.20;;;;;;4901401;29;20393;-73
2022/08/25 03:34:19;;;;;;;0.00;0.00;;;21.70;82.50;;;;;;4895033;29;20040;-73
2022/08/25 03:36:49;;;;;;;0.00;0.00;;;21.60;83.10;;;;;;4909713;29;20395;-72
2022/08/25 03:39:18;;;;;;;0.00;0.00;;;21.50;82.40;;;;;;4913976;29;20120;-72
2022/08/25 03:41:48;;;;;;;0.10;0.00;;;21.40;83.20;;;;;;4912328;29;20134;-72
2022/08/25 03:44:17;;;;;;;0.20;0.00;;;21.40;82.40;;;;;;4914440;29;20058;-73
2022/08/25 03:46:50;;;;;;;1.98;0.00;;;21.30;82.70;;;;;;4912494;29;20040;-72
2022/08/25 03:49:21;;;;;;;0.00;0.00;;;21.20;82.00;;;;;;4913871;29;20036;-73
2022/08/25 03:51:51;;;;;;;0.13;0.10;;;21.20;82.60;;;;;;4913471;29;20028;-72
2022/08/25 03:54:23;;;;;;;0.00;0.00;;;21.20;82.00;;;;;;4917083;29;20118;-73
2022/08/25 03:56:50;;;;;;;0.00;0.00;;;21.30;81.40;;;;;;4904483;29;20124;-73
2022/08/25 03:59:18;;;;;;;3.63;0.10;;;21.50;82.10;;;;;;4917711;29;20038;-72
2022/08/25 04:01:47;;;;;;;0.00;0.00;;;21.60;81.70;;;;;;4909864;29;20043;-73
2022/08/25 04:04:15;;;;;;;0.00;0.00;;;21.60;81.10;;;;;;4897990;29;20037;-73
2022/08/25 04:06:44;;;;;;;0.08;0.00;;;21.80;81.90;;;;;;4911668;29;20063;-72
2022/08/25 04:09:12;;;;;;;0.15;0.05;;;21.70;82.20;;;;;;4915944;29;20055;-72
2022/08/25 04:11:40;;;;;;;0.10;0.05;;;21.70;81.70;;;;;;4915451;29;20028;-73
2022/08/25 04:14:07;;;;;;;0.22;0.10;;;21.70;81.60;;;;;;4916918;29;20479;-73
2022/08/25 04:16:35;;;;;;;0.20;0.10;;;21.50;82.70;;;;;;4914254;29;20161;-72
2022/08/25 04:19:08;;;;;;;0.00;0.00;;;21.20;81.60;;;;;;4916679;29;20169;-74
2022/08/25 04:21:37;;;;;;;0.25;0.00;;;21.00;82.70;;;;;;4911721;29;20035;-74
2022/08/25 04:24:07;;;;;;;0.00;0.00;;;20.80;84.60;;;;;;4916243;29;20032;-73
2022/08/25 04:26:42;;;;;;;0.30;0.05;;;20.50;83.30;;;;;;4914751;29;20086;-73
2022/08/25 04:29:12;;;;;;;0.00;0.00;;;20.20;83.40;;;;;;4916619;29;20040;-73
2022/08/25 04:31:42;;;;;;;0.10;0.10;;;19.90;83.90;;;;;;4914950;29;20039;-73
2022/08/25 04:34:10;;;;;;;0.52;0.20;;;19.70;84.20;;;;;;4917171;29;20051;-73
2022/08/25 04:36:37;;;;;;;0.08;0.05;;;19.50;85.20;;;;;;4914459;29;20435;-74
2022/08/25 04:39:05;;;;;;;0.30;0.10;;;19.40;84.90;;;;;;4916535;29;20107;-73
2022/08/25 04:41:33;;;;;;;0.00;0.00;;;19.30;84.80;;;;;;4915027;29;20028;-73
2022/08/25 04:44:01;;;;;;;0.10;0.10;;;19.30;85.20;;;;;;4915705;29;20032;-73
2022/08/25 04:46:31;;;;;;;0.10;0.00;;;19.20;85.60;;;;;;4914156;29;20479;-73
2022/08/25 04:49:00;;;;;;;0.10;0.10;;;19.20;85.80;;;;;;4916021;29;20380;-72
2022/08/25 04:51:35;;;;;;;0.30;0.08;;;19.20;86.40;;;;;;4914014;29;20395;-72
2022/08/25 04:54:05;;;;;;;0.10;0.10;;;19.30;85.70;;;;;;4915701;29;20107;-73
2022/08/25 04:56:33;;;;;;;0.00;0.00;;;19.20;85.40;;;;;;4914065;29;20051;-73
2022/08/25 04:59:06;;;;;;;0.40;0.40;;;19.20;85.70;;;;;;4915974;29;20083;-73
2022/08/25 05:01:34;;;;;;;0.00;0.00;;;19.20;85.30;;;;;;4914316;29;20078;-72
2022/08/25 05:04:04;;;;;;;0.10;0.10;;;19.00;85.10;;;;;;4914681;29;20109;-73
2022/08/25 05:06:31;;;;;;;0.50;0.00;;;18.90;86.10;;;;;;4913732;29;20039;-72
2022/08/25 05:09:00;;;;;;;0.00;0.00;;;18.80;85.60;;;;;;4915939;29;20074;-72
2022/08/25 05:11:27;;;;;;;0.30;0.10;;;18.70;85.90;;;;;;4914114;29;20036;-73
2022/08/25 05:13:57;;;;;;;1.17;0.10;;;18.60;86.50;;;;;;4915543;29;20103;-73
2022/08/25 05:16:25;;;;;;;0.65;0.05;;;18.60;86.90;;;;;;4906849;29;20368;-73
2022/08/25 05:18:54;;;;;;;1.13;0.10;;;18.60;87.30;;;;;;4896727;29;20127;-73
2022/08/25 05:21:25;;;;;;;0.10;0.10;;;18.60;86.10;;;;;;4907811;29;20383;-73
2022/08/25 05:23:58;;;;;;;0.25;0.10;;;18.50;86.80;;;;;;4915487;29;20447;-73
2022/08/25 05:26:29;;;;;;;0.30;0.10;;;18.50;87.30;;;;;;4908244;29;20032;-73
2022/08/25 05:28:57;;;;;;;0.25;0.10;;;18.40;87.20;;;;;;4911584;29;20515;-74
2022/08/25 05:31:26;;;;;;;0.50;0.10;;;18.40;87.70;;;;;;4907707;29;20032;-72
2022/08/25 05:33:54;;;;;;;0.45;0.20;;;18.30;88.30;;;;;;4915339;29;20028;-73
2022/08/25 05:36:22;;;;;;;1.55;0.20;;;18.30;88.40;;;;;;4914023;29;20054;-72
2022/08/25 05:38:50;;;;;;;3.05;0.20;;;18.30;88.40;;;;;;4915315;29;20082;-72
2022/08/25 05:41:21;;;;;;;1.00;0.30;;;18.30;88.30;;;;;;4913646;29;20040;-72
2022/08/25 05:43:49;;;;;;;0.80;0.50;;;18.30;88.60;;;;;;4896420;29;20330;-73
2022/08/25 05:46:18;;;;;;;0.25;0.10;;;18.40;88.70;;;;;;4905942;29;20067;-73
2022/08/25 05:48:46;;;;;;;1.33;0.30;;;18.50;88.70;;;;;;4915058;29;20416;-73
2022/08/25 05:51:15;;;;;;;5.75;0.50;;;18.60;88.40;;;;;;4913847;29;20040;-73
2022/08/25 05:53:45;;;;;;;3.97;0.50;;;18.70;88.30;;;;;;4915301;29;20440;-73
2022/08/25 05:56:13;;;;;;;1.17;0.35;;;18.70;88.40;;;;;;4913457;29;20130;-74
2022/08/25 05:58:41;;;;;;;5.45;0.85;;;18.80;88.20;;;;;;4916126;29;20055;-75
2022/08/25 06:04:03;;;;;;;3.00;0.70;;;18.60;88.50;;;;;;4915265;29;20088;-73
2022/08/25 06:06:31;;;;;;;0.70;0.63;;;18.60;88.40;;;;;;4913357;29;20082;-73
2022/08/25 06:08:58;;;;;;;0.40;0.10;;;18.60;88.50;;;;;;4914429;29;20060;-74
2022/08/25 06:11:26;;;;;;;1.40;0.10;;;18.50;89.00;;;;;;4913197;29;20042;-73
2022/08/25 06:13:53;;;;;;;0.10;0.10;;;18.40;89.20;;;;;;4914584;29;20024;-73
2022/08/25 06:16:20;;;;;;;0.15;0.10;;;18.30;89.00;;;;;;4913572;29;20123;-74
2022/08/25 06:18:48;;;;;;;0.43;0.20;;;18.20;89.70;;;;;;4914869;29;20095;-74
2022/08/25 06:21:17;;;;;;;0.28;0.20;;;18.10;90.00;;;;;;4909929;29;20040;-73
2022/08/25 06:23:44;;;;;;;1.30;0.10;;;18.00;90.10;;;;;;4914564;29;20487;-72
2022/08/25 06:26:13;;;;;;;0.20;0.10;;;17.90;89.60;;;;;;4913023;29;20032;-73
2022/08/25 06:28:40;;;;;;;1.00;0.45;;;17.90;90.10;;;;;;4914957;29;20102;-75
2022/08/25 06:31:08;;;;;;;4.03;0.10;;;17.80;90.70;;;;;;4913201;29;20043;-74
2022/08/25 06:33:36;;;;;;;0.17;0.10;;;17.70;90.70;;;;;;4915398;29;20028;-72
2022/08/25 06:36:04;;;;;;;0.30;0.10;;;17.60;90.60;;;;;;4912915;29;20423;-75
2022/08/25 06:38:32;;;;;;;1.13;0.32;;;17.60;91.20;;;;;;4914268;29;20039;-73
2022/08/25 06:41:02;;;;;;;0.88;0.22;;;17.50;91.60;;;;;;4912257;29;20498;-73
2022/08/25 06:43:31;;;;;;;0.85;0.30;;;17.50;91.80;;;;;;4914685;29;20039;-75
2022/08/25 06:46:13;;;;;;;2.47;1.25;;;17.40;92.20;;;;;;4911215;29;20036;-73
2022/08/25 06:48:40;;;;;;;3.25;1.65;;;17.30;92.50;;;;;;4914691;29;20099;-74
2022/08/25 06:51:10;;;;;;;3.15;2.20;;;17.30;92.60;;;;;;4913907;29;20031;-74
2022/08/25 06:53:38;;;;;;;1.38;0.65;;;17.20;92.90;;;;;;4897644;29;20039;-74
2022/08/25 06:56:06;;;;;;;3.13;0.30;;;17.20;92.90;;;;;;4912688;29;20032;-73
2022/08/25 06:58:33;;;;;;;0.57;0.20;;;17.10;93.10;;;;;;4914524;29;20032;-73
2022/08/25 07:01:17;;;;;;;0.88;0.30;;;17.10;92.70;;;;;;4912441;29;20723;-74
2022/08/25 07:03:44;;;;;;;0.75;0.20;;;17.00;92.80;;;;;;4914283;29;20028;-74
2022/08/25 07:06:12;;;;;;;0.98;0.20;;;16.90;92.90;;;;;;4913078;29;20028;-74
2022/08/25 07:08:39;;;;;;;1.35;0.30;;;16.90;92.60;;;;;;4932246;29;20056;-72
2022/08/25 07:11:11;;;;;;;0.60;0.30;;;16.80;93.20;;;;;;4909636;29;20025;-75
2022/08/25 07:13:39;;;;;;;0.73;0.40;;;16.80;93.00;;;;;;4894808;29;20044;-75
2022/08/25 07:16:09;;;;;;;1.33;0.22;;;16.80;93.10;;;;;;4901717;29;20020;-74
2022/08/25 07:18:37;;;;;;;0.80;0.30;;;16.80;93.10;;;;;;4914332;29;20060;-74
2022/08/25 07:21:05;;;;;;;1.17;0.15;;;16.70;93.10;;;;;;4912413;29;20123;-73
2022/08/25 07:23:33;;;;;;;0.45;0.30;;;16.60;93.30;;;;;;4914741;29;20503;-73
2022/08/25 07:26:11;;;;;;;0.45;0.10;;;16.60;93.90;;;;;;4912530;29;20175;-73
2022/08/25 07:28:39;;;;;;;0.63;0.20;;;16.60;93.70;;;;;;4917854;29;20399;-74
2022/08/25 07:31:06;;;;;;;2.33;0.20;;;16.50;93.60;;;;;;4907588;29;20337;-75
2022/08/25 07:33:34;;;;;;;0.17;0.10;;;16.50;94.30;;;;;;4899246;29;20455;-74
2022/08/25 07:36:02;;;;;;;1.80;0.30;;;16.40;93.80;;;;;;4907472;29;20032;-74
2022/08/25 07:38:29;;;;;;;2.28;0.38;;;16.30;93.90;;;;;;4917894;29;20399;-74
2022/08/25 07:41:04;;;;;;;0.82;0.30;;;16.30;94.40;;;;;;4916418;29;20111;-74
2022/08/25 07:43:31;;;;;;;1.38;0.50;;;16.30;93.80;;;;;;4917839;29;20039;-74
2022/08/25 07:45:59;;;;;;;1.05;0.40;;;16.20;93.50;;;;;;4915845;29;20088;-73
2022/08/25 07:48:26;;;;;;;1.35;0.38;;;16.20;93.70;;;;;;4917728;29;20115;-74
2022/08/25 07:50:53;;;;;;;0.30;0.10;;;16.20;93.50;;;;;;4915705;29;20039;-74
2022/08/25 07:53:21;;;;;;;0.45;0.10;;;16.10;93.50;;;;;;4917383;29;20028;-75
2022/08/25 07:55:49;;;;;;;0.65;0.10;;;16.10;93.60;;;;;;4914674;29;20076;-74
2022/08/25 07:58:17;;;;;;;2.40;0.30;;;16.00;93.90;;;;;;4917862;29;20028;-74
2022/08/25 08:00:48;;;;;;;0.90;0.20;;;16.00;94.60;;;;;;4915486;29;20039;-74
2022/08/25 08:03:15;;;;;;;0.32;0.20;;;15.90;94.10;;;;;;4917586;29;20039;-74
2022/08/25 08:05:43;;;;;;;2.55;0.30;;;15.80;94.00;;;;;;4909977;29;20044;-73
2022/08/25 08:08:11;;;;;;;1.40;0.30;;;15.70;94.20;;;;;;4897889;29;20128;-74
2022/08/25 08:10:42;;;;;;;2.53;0.28;;;15.70;94.80;;;;;;4903435;29;20475;-74
2022/08/25 08:13:10;;;;;;;2.03;0.60;;;15.50;95.20;;;;;;4917299;29;20060;-74
2022/08/25 08:15:41;;;;;;;1.33;0.55;;;15.40;95.50;;;;;;4915849;29;20036;-74
2022/08/25 08:18:09;;;;;;;1.67;1.00;;;15.30;95.70;;;;;;4917354;29;20036;-76
2022/08/25 08:20:37;;;;;;;5.45;1.20;;;15.20;96.00;;;;;;4912757;29;20024;-74
2022/08/25 08:23:05;;;;;;;3.13;1.92;;;15.10;96.20;;;;;;4916577;29;20431;-74
2022/08/25 08:25:32;;;;;;;5.65;1.95;;;15.10;96.40;;;;;;4915657;29;20118;-74
2022/08/25 08:27:59;;;;;;;3.13;1.70;;;15.00;96.40;;;;;;4916908;29;20032;-73
2022/08/25 08:30:27;;;;;;;2.42;1.30;;;14.90;96.60;;;;;;4915270;29;20057;-73
2022/08/25 08:32:55;;;;;;;1.92;1.20;;;14.90;96.70;;;;;;4917149;29;20040;-74
2022/08/25 08:35:23;;;;;;;2.50;1.20;;;14.80;96.80;;;;;;4914609;29;20036;-74
2022/08/25 08:37:50;;;;;;;3.55;1.30;;;14.80;97.10;;;;;;4916583;29;20028;-74
2022/08/25 08:40:19;;;;;;;1.35;1.05;;;14.70;97.30;;;;;;4915319;29;20154;-74
2022/08/25 08:43:09;;;;;;;1.42;0.93;;;14.60;97.60;;;;;;4916872;29;20094;-75
2022/08/25 08:45:43;;;;;;;2.55;1.35;;;14.50;97.80;;;;;;4913632;29;20088;-75
2022/08/25 08:49:00;;;;;;;3.88;1.20;;;14.50;98.00;;;;;;4916421;29;20032;-75
2022/08/25 08:51:46;;;;;;;1.77;0.88;;;14.50;98.20;;;;;;4890477;29;20441;-74
2022/08/25 08:54:20;;;;;;;2.25;1.10;;;14.50;98.60;;;;;;4897220;29;20041;-74
2022/08/25 08:57:15;;;;;;;1.95;0.93;;;14.40;98.80;;;;;;4911947;29;20028;-74
2022/08/25 08:59:55;;;;;;;0.98;0.50;;;14.40;99.10;;;;;;4916408;29;20032;-74
2022/08/25 09:02:38;;;;;;;1.05;0.50;;;14.40;99.40;;;;;;4897684;29;20068;-74
2022/08/25 09:05:13;;;;;;;0.70;0.47;;;14.40;99.60;;;;;;4898714;29;20039;-75
2022/08/25 09:07:56;;;;;;;1.33;0.80;;;14.50;99.80;;;;;;4934618;29;20027;-74
2022/08/25 09:10:28;;;;;;;1.65;0.80;;;14.50;99.90;;;;;;4928224;29;20052;-74
2022/08/25 09:13:06;;;;;;;1.85;1.02;;;14.50;99.90;;;;;;4916112;29;20438;-74
2022/08/25 09:19:13;;;;;;;2.40;1.17;;;14.40;99.90;;;;;;4910497;29;20415;-73
2022/08/25 09:21:56;;;;;;;2.00;0.90;;;14.40;99.90;;;;;;4819831;29;20050;-73
2022/08/25 09:24:29;;;;;;;2.55;1.40;;;14.30;99.90;;;;;;4812291;29;20039;-73
2022/08/25 09:27:03;;;;;;;2.10;0.80;;;14.10;99.90;;;;;;4866302;29;20036;-73
2022/08/25 09:30:01;;;;;;;1.88;1.00;;;14.00;99.90;;;;;;4896903;29;20187;-74
2022/08/25 09:32:33;;;;;;;1.17;0.73;;;13.90;99.90;;;;;;4909646;29;20089;-75
2022/08/25 09:35:02;;;;;;;2.65;0.85;;;13.70;99.90;;;;;;4897186;29;20046;-74
2022/08/25 09:37:30;;;;;;;3.38;1.23;;;13.70;99.90;;;;;;4915686;29;20028;-73
2022/08/25 09:39:57;;;;;;;1.40;0.90;;;13.60;99.90;;;;;;4914337;29;20159;-74
2022/08/25 09:42:52;;;;;;;1.17;0.57;;;13.50;99.90;;;;;;4915403;29;20051;-73
2022/08/25 09:45:42;;;;;;;2.45;1.35;;;13.50;99.90;;;;;;4913424;29;20029;-73
2022/08/25 09:48:36;;;;;;;1.25;0.60;;;13.40;99.90;;;;;;4901103;29;20075;-73
2022/08/25 09:51:34;;;;;;;1.38;0.60;;;13.40;99.90;;;;;;4913678;29;20040;-73
2022/08/25 09:54:17;;;;;;;1.23;0.68;;;13.40;99.90;;;;;;4896489;29;20123;-73
2022/08/25 09:56:56;;;;;;;1.00;0.75;;;13.40;99.90;;;;;;4914260;29;20032;-74
2022/08/25 09:59:25;;;;;;;1.38;0.60;;;13.50;99.90;;;;;;4915430;29;20031;-74
2022/08/25 10:01:59;;;;;;;1.60;0.50;;;13.60;99.90;;;;;;4898512;29;20037;-74
2022/08/25 10:04:38;;;;;;;1.35;0.70;;;13.70;99.90;;;;;;4896567;29;20392;-74
2022/08/25 10:07:24;;;;;;;5.47;3.97;;;13.80;99.90;;;;;;4912953;29;20123;-74
2022/08/25 10:09:58;;;;;;;4.68;1.90;;;13.80;99.90;;;;;;4913757;29;20075;-73
2022/08/25 10:12:46;;;;;;;3.45;1.45;;;13.80;99.90;;;;;;4896137;29;20051;-74
2022/08/25 10:15:27;;;;;;;4.03;1.15;;;13.80;99.90;;;;;;4910536;29;20381;-74
2022/08/25 10:17:55;;;;;;;1.92;1.00;;;13.80;99.90;;;;;;4888549;29;20036;-74
2022/08/25 10:20:27;;;;;;;1.35;0.98;;;13.70;99.90;;;;;;4913743;29;20506;-73
2022/08/25 10:23:12;;;;;;;1.50;1.15;;;13.70;99.90;;;;;;4915052;29;20035;-73
2022/08/25 10:25:45;;;;;;;3.42;1.60;;;13.70;99.90;;;;;;4910870;29;20016;-75
2022/08/25 10:28:23;;;;;;;4.90;1.98;;;13.70;99.90;;;;;;4914738;29;20481;-74
2022/08/25 10:31:03;;;;;;;3.50;1.60;;;13.60;99.90;;;;;;4913047;29;20028;-73
2022/08/25 10:34:07;;;;;;;3.17;1.27;;;13.70;99.90;;;;;;4914983;29;20104;-73
2022/08/25 10:36:57;;;;;;;2.50;1.45;;;13.70;99.90;;;;;;4901760;29;20052;-74
2022/08/25 10:39:35;;;;;;;2.67;1.30;;;13.80;99.90;;;;;;4896070;29;20044;-73
2022/08/25 10:42:10;;;;;;;3.38;1.33;;;13.80;99.90;;;;;;4912004;29;20459;-73
2022/08/25 10:48:00;;;;;;;1.73;1.25;;;13.80;99.90;;;;;;4915383;29;20047;-75
2022/08/25 10:50:45;;;;;;;2.78;1.00;;;13.80;99.90;;;;;;4913128;29;20411;-75
2022/08/25 10:53:31;;;;;;;1.85;1.25;;;13.80;99.90;;;;;;4914499;29;20028;-75
2022/08/25 10:56:05;;;;;;;3.17;0.85;;;13.80;99.90;;;;;;4913345;29;20028;-75
2022/08/25 10:58:38;;;;;;;1.30;0.82;;;13.80;99.90;;;;;;4914677;29;20107;-75
2022/08/25 11:01:34;;;;;;;1.35;0.70;;;13.70;99.90;;;;;;4914326;29;20035;-75
2022/08/25 11:04:11;;;;;;;2.70;1.58;;;13.70;99.90;;;;;;4918276;29;20029;-75
2022/08/25 11:06:56;;;;;;;1.20;1.00;;;13.60;99.90;;;;;;4919561;29;20170;-74
2022/08/25 11:09:30;;;;;;;2.10;1.42;;;13.50;99.90;;;;;;4918024;29;20406;-74
2022/08/25 11:12:19;;;;;;;1.52;1.00;;;13.50;99.90;;;;;;4916134;29;20024;-74
2022/08/25 11:14:55;;;;;;;3.08;1.42;;;13.50;99.90;;;;;;4916049;29;20052;-73
2022/08/25 11:17:28;;;;;;;2.40;1.45;;;13.40;99.90;;;;;;4899551;29;20057;-74
2022/08/25 11:20:00;;;;;;;2.60;1.30;;;13.40;99.90;;;;;;4899450;29;20067;-74
2022/08/25 11:22:43;;;;;;;5.32;1.27;;;13.30;99.90;;;;;;4909764;29;20360;-74
2022/08/25 11:25:28;;;;;;;2.50;1.25;;;13.20;99.90;;;;;;4916335;29;20466;-74
2022/08/25 11:28:09;;;;;;;2.60;1.25;;;13.10;99.90;;;;;;4917574;29;20484;-74
2022/08/25 11:30:37;;;;;;;1.40;0.70;;;13.00;99.90;;;;;;4916501;29;20045;-73
2022/08/25 11:33:05;;;;;;;1.95;1.30;;;12.90;99.90;;;;;;4917769;29;20471;-72
2022/08/25 11:35:36;;;;;;;2.03;0.85;;;12.80;99.90;;;;;;4916369;29;20036;-73
2022/08/25 11:38:33;;;;;;;2.25;1.10;;;12.70;99.90;;;;;;4917479;29;20039;-73
2022/08/25 11:41:24;;;;;;;1.20;0.90;;;12.60;99.90;;;;;;4907381;29;20036;-73
2022/08/25 11:44:12;;;;;;;1.80;1.13;;;12.50;99.90;;;;;;4917980;29;20031;-74
2022/08/25 11:46:58;;;;;;;3.08;0.82;;;12.50;99.90;;;;;;4915634;29;20040;-73
2022/08/25 11:49:41;;;;;;;1.23;0.68;;;12.40;99.90;;;;;;4917575;29;20048;-73
2022/08/25 11:52:34;;;;;;;0.88;0.68;;;12.40;99.90;;;;;;4915071;29;20075;-73
2022/08/25 11:55:15;;;;;;;3.20;0.73;;;12.30;99.90;;;;;;4915766;29;20051;-73
2022/08/25 11:57:45;;;;;;;1.77;0.60;;;12.30;99.90;;;;;;4898635;29;20088;-74
2022/08/25 12:00:38;;;;;;;1.45;0.60;;;12.30;99.90;;;;;;4900425;29;20333;-75
2022/08/25 12:03:35;;;;;;;1.35;0.88;;;12.30;99.90;;;;;;4904872;29;20050;-74
2022/08/25 12:06:20;;;;;;;1.75;1.58;;;12.30;99.90;;;;;;4915131;29;20036;-74
2022/08/25 12:09:12;;;;;;;2.72;1.65;;;12.40;99.90;;;;;;4916877;29;20148;-74
2022/08/25 12:11:57;;;;;;;1.45;0.82;;;12.50;99.90;;;;;;4904190;29;20555;-74
2022/08/25 12:14:25;;;;;;;2.15;1.15;;;12.50;99.90;;;;;;4917685;29;20036;-72
2022/08/25 12:16:55;;;;;;;4.15;1.23;;;12.60;99.90;;;;;;4911379;29;20040;-73
2022/08/25 12:19:34;;;;;;;1.88;0.80;;;12.60;99.90;;;;;;4916832;29;20024;-73
2022/08/25 12:22:02;;;;;;;1.10;0.75;;;12.70;99.90;;;;;;4915236;29;20047;-72
2022/08/25 12:24:49;;;;;;;3.35;0.90;;;12.70;99.90;;;;;;4916725;29;20075;-72
2022/08/25 12:27:43;;;;;;;1.75;0.82;;;12.80;99.90;;;;;;4916788;29;20472;-73
2022/08/25 12:30:23;;;;;;;1.50;0.85;;;12.80;99.90;;;;;;4915719;29;20558;-73
2022/08/25 12:33:11;;;;;;;1.55;0.63;;;12.80;99.90;;;;;;4916835;29;20039;-73
2022/08/25 12:36:20;;;;;;;1.13;0.90;;;12.80;99.90;;;;;;4915356;29;20028;-74
2022/08/25 12:38:51;;;;;;;2.17;1.00;;;12.80;99.90;;;;;;4881115;29;20068;-74
2022/08/25 12:41:23;;;;;;;2.45;1.25;;;12.80;99.90;;;;;;4914662;29;20547;-74
2022/08/25 12:43:53;;;;;;;2.20;1.40;;;12.70;99.90;;;;;;4916813;29;20510;-74
2022/08/25 12:46:27;;;;;;;2.67;1.15;;;12.70;99.90;;;;;;4915686;29;20137;-73
2022/08/25 12:49:16;;;;;;;1.25;1.00;;;12.70;99.90;;;;;;4916590;29;20032;-73
2022/08/25 12:51:43;;;;;;;2.15;1.30;;;12.60;99.90;;;;;;4915016;29;20029;-73
2022/08/25 12:54:19;;;;;;;1.83;1.10;;;12.60;99.90;;;;;;4910133;29;20060;-73
2022/08/25 12:57:03;;;;;;;4.13;1.02;;;12.50;99.90;;;;;;4912095;29;20063;-74
2022/08/25 12:59:39;;;;;;;2.25;0.80;;;12.40;99.90;;;;;;4916714;29;20103;-73
2022/08/25 13:02:27;;;;;;;2.38;1.02;;;12.30;99.90;;;;;;4914305;29;20036;-72
2022/08/25 13:05:16;;;;;;;1.67;1.13;;;12.20;99.90;;;;;;4898058;29;20039;-73
2022/08/25 13:08:01;;;;;;;2.78;1.75;;;12.20;99.90;;;;;;4897472;29;20044;-73
2022/08/25 13:10:50;;;;;;;3.45;1.42;;;12.10;99.90;;;;;;4901513;29;20135;-73
2022/08/25 13:13:35;;;;;;;1.15;0.90;;;12.00;99.90;;;;;;4916485;29;20043;-73
2022/08/25 13:16:07;;;;;;;2.22;1.13;;;11.90;99.90;;;;;;4910489;29;20413;-73
2022/08/25 13:18:37;;;;;;;1.73;1.00;;;11.90;99.90;;;;;;4916085;29;20028;-73
2022/08/25 13:21:23;;;;;;;2.28;0.77;;;11.80;99.90;;;;;;4914735;29;20033;-73
2022/08/25 13:23:54;;;;;;;1.33;0.85;;;11.80;99.90;;;;;;4915243;29;20036;-73
2022/08/25 13:26:28;;;;;;;1.27;0.70;;;11.80;99.90;;;;;;4911950;29;20499;-73
2022/08/25 13:29:00;;;;;;;1.17;0.88;;;11.80;99.90;;;;;;4916228;29;20116;-73
2022/08/25 13:31:29;;;;;;;3.05;1.20;;;11.90;99.90;;;;;;4914553;29;20051;-73